createdAt,value
2022-10-28T00:01:22.042Z,5.88
2022-10-28T00:03:55.374Z,5.47
2022-10-28T00:06:31.818Z,5.55
2022-10-28T00:08:59.516Z,5.78
2022-10-28T00:11:29.315Z,5.32
2022-10-28T00:13:58.411Z,5.18
2022-10-28T00:16:31.796Z,5.07
2022-10-28T00:19:00.624Z,4.43
2022-10-28T00:21:29.789Z,4.00
2022-10-28T00:23:57.178Z,4.63
2022-10-28T00:26:29.957Z,5.25
2022-10-28T00:29:06.807Z,4.40
2022-10-28T00:31:35.413Z,4.50
2022-10-28T00:34:04.400Z,4.18
2022-10-28T00:36:34.711Z,4.28
2022-10-28T00:39:03.665Z,4.00
2022-10-28T00:41:36.488Z,4.30
2022-10-28T00:44:42.264Z,4.13
2022-10-28T00:47:28.854Z,3.85
2022-10-28T00:50:09.999Z,4.55
2022-10-28T00:52:38.144Z,4.38
2022-10-28T00:55:06.141Z,4.25
2022-10-28T00:57:36.695Z,4.45
2022-10-28T01:00:07.259Z,3.88
2022-10-28T01:02:42.112Z,4.40
2022-10-28T01:05:12.141Z,4.07
2022-10-28T01:07:39.371Z,4.55
2022-10-28T01:10:08.094Z,4.50
2022-10-28T01:12:54.632Z,4.25
2022-10-28T01:15:57.172Z,4.10
2022-10-28T01:18:27.169Z,4.70
2022-10-28T01:21:00.126Z,4.60
2022-10-28T01:23:46.192Z,4.72
2022-10-28T01:26:29.577Z,4.28
2022-10-28T01:29:48.247Z,4.38
2022-10-28T01:32:30.372Z,4.50
2022-10-28T01:35:22.004Z,4.20
2022-10-28T01:37:53.109Z,4.43
2022-10-28T01:40:36.527Z,4.47
2022-10-28T01:43:30.847Z,4.20
2022-10-28T01:46:06.031Z,4.22
2022-10-28T01:48:42.821Z,3.67
2022-10-28T01:51:25.916Z,4.07
2022-10-28T01:53:56.918Z,4.10
2022-10-28T01:56:31.656Z,4.30
2022-10-28T01:59:01.280Z,4.03
2022-10-28T02:01:31.096Z,4.30
2022-10-28T02:03:58.623Z,3.78
2022-10-28T02:06:28.837Z,3.80
2022-10-28T02:09:08.110Z,3.60
2022-10-28T02:11:49.655Z,3.80
2022-10-28T02:14:42.913Z,4.03
2022-10-28T02:17:51.845Z,3.70
2022-10-28T02:20:41.038Z,3.78
2022-10-28T02:23:07.926Z,3.92
2022-10-28T02:26:01.047Z,3.90
2022-10-28T02:28:48.842Z,3.17
2022-10-28T02:31:26.678Z,3.95
2022-10-28T02:34:00.597Z,3.53
2022-10-28T02:36:30.830Z,3.22
2022-10-28T02:39:00.795Z,3.92
2022-10-28T02:41:40.181Z,3.60
2022-10-28T02:44:23.943Z,3.55
2022-10-28T02:46:52.674Z,4.05
2022-10-28T02:49:20.501Z,3.30
2022-10-28T02:52:03.422Z,3.22
2022-10-28T02:54:41.751Z,3.05
2022-10-28T02:57:26.852Z,2.85
2022-10-28T03:00:00.649Z,3.10
2022-10-28T03:02:28.574Z,3.28
2022-10-28T03:04:55.640Z,3.50
2022-10-28T03:07:22.760Z,3.25
2022-10-28T03:09:50.081Z,3.15
2022-10-28T03:12:17.267Z,3.30
2022-10-28T03:14:44.464Z,3.38
2022-10-28T03:17:11.493Z,4.50
2022-10-28T03:19:38.591Z,3.90
2022-10-28T03:22:05.644Z,4.03
2022-10-28T03:24:32.745Z,4.07
2022-10-28T03:27:00.037Z,4.00
2022-10-28T03:29:27.164Z,3.92
2022-10-28T03:31:54.134Z,4.53
2022-10-28T03:34:21.035Z,4.43
2022-10-28T03:36:47.954Z,4.82
2022-10-28T03:39:15.086Z,4.53
2022-10-28T03:41:42.225Z,4.68
2022-10-28T03:44:09.182Z,4.78
2022-10-28T03:46:36.370Z,4.80
2022-10-28T03:49:03.741Z,4.28
2022-10-28T03:51:30.723Z,4.95
2022-10-28T03:53:57.689Z,4.93
2022-10-28T03:56:24.616Z,5.15
2022-10-28T04:01:18.527Z,5.53
2022-10-28T04:03:45.511Z,6.00
2022-10-28T04:06:12.460Z,5.50
2022-10-28T04:08:39.804Z,5.40
2022-10-28T04:11:06.842Z,5.60
2022-10-28T04:13:34.463Z,4.93
2022-10-28T04:16:02.339Z,5.15
2022-10-28T04:18:29.256Z,4.88
2022-10-28T04:20:56.279Z,5.13
2022-10-28T04:23:23.280Z,5.50
2022-10-28T04:25:54.815Z,5.57
2022-10-28T04:28:24.404Z,5.93
2022-10-28T04:30:51.479Z,5.93
2022-10-28T04:33:18.388Z,6.20
2022-10-28T04:35:45.993Z,6.40
2022-10-28T04:38:14.370Z,6.00
2022-10-28T04:40:42.137Z,6.18
2022-10-28T04:43:10.444Z,6.30
2022-10-28T04:45:38.475Z,6.88
2022-10-28T04:48:05.551Z,6.13
2022-10-28T04:50:32.417Z,8.02
2022-10-28T04:53:00.324Z,7.22
2022-10-28T04:55:27.372Z,7.50
2022-10-28T04:57:55.950Z,7.45
2022-10-28T05:00:25.219Z,7.50
2022-10-28T05:02:53.152Z,7.55
2022-10-28T05:05:20.936Z,7.90
2022-10-28T05:07:48.558Z,7.85
2022-10-28T05:10:16.447Z,7.55
2022-10-28T05:12:43.567Z,7.70
2022-10-28T05:15:11.618Z,8.07
2022-10-28T05:17:40.796Z,9.73
2022-10-28T05:20:08.935Z,8.38
2022-10-28T05:22:36.225Z,7.97
2022-10-28T05:25:04.241Z,9.65
2022-10-28T05:27:31.407Z,7.50
2022-10-28T05:29:58.313Z,8.75
2022-10-28T05:32:25.941Z,8.82
2022-10-28T05:34:53.190Z,7.20
2022-10-28T05:37:20.296Z,8.10
2022-10-28T05:39:47.418Z,8.60
2022-10-28T05:42:14.602Z,8.48
2022-10-28T05:44:41.582Z,9.00
2022-10-28T05:47:08.654Z,8.30
2022-10-28T05:49:35.615Z,7.93
2022-10-28T05:52:02.690Z,7.60
2022-10-28T05:54:30.608Z,8.32
2022-10-28T05:56:58.400Z,9.80
2022-10-28T05:59:26.441Z,9.50
2022-10-28T06:01:53.675Z,10.65
2022-10-28T06:04:21.601Z,9.77
2022-10-28T06:06:50.226Z,8.88
2022-10-28T06:09:17.254Z,8.65
2022-10-28T06:11:42.595Z,8.48
2022-10-28T06:14:09.670Z,8.25
2022-10-28T06:16:37.746Z,7.78
2022-10-28T06:19:05.020Z,7.57
2022-10-28T06:21:32.212Z,7.70
2022-10-28T06:23:59.605Z,7.97
2022-10-28T06:26:27.652Z,8.10
2022-10-28T06:28:54.721Z,8.75
2022-10-28T06:31:21.918Z,8.57
2022-10-28T06:33:49.047Z,8.63
2022-10-28T06:36:16.088Z,9.13
2022-10-28T06:38:43.003Z,9.05
2022-10-28T06:41:10.520Z,9.00
2022-10-28T06:43:37.706Z,9.20
2022-10-28T06:46:04.807Z,8.90
2022-10-28T06:48:33.364Z,8.23
2022-10-28T06:51:00.461Z,9.20
2022-10-28T06:53:27.544Z,8.88
2022-10-28T06:55:56.170Z,9.00
2022-10-28T06:58:23.793Z,8.60
2022-10-28T07:00:51.663Z,8.05
2022-10-28T07:03:19.579Z,8.57
2022-10-28T07:05:49.915Z,7.97
2022-10-28T07:08:17.844Z,7.60
2022-10-28T07:10:52.775Z,8.27
2022-10-28T07:13:19.729Z,7.88
2022-10-28T07:15:54.962Z,7.80
2022-10-28T07:18:22.998Z,7.78
2022-10-28T07:20:51.320Z,7.65
2022-10-28T07:23:18.845Z,7.32
2022-10-28T07:25:55.223Z,7.47
2022-10-28T07:28:24.017Z,7.32
2022-10-28T07:30:52.433Z,7.63
2022-10-28T07:33:20.109Z,7.72
2022-10-28T07:35:47.150Z,7.60
2022-10-28T07:38:14.718Z,8.00
2022-10-28T07:40:42.357Z,7.20
2022-10-28T07:43:09.478Z,7.47
2022-10-28T07:45:38.481Z,7.43
2022-10-28T07:48:06.564Z,6.32
2022-10-28T07:50:33.780Z,7.30
2022-10-28T07:53:01.066Z,6.88
2022-10-28T07:55:30.142Z,6.60
2022-10-28T07:57:57.663Z,6.80
2022-10-28T08:00:26.232Z,6.80
2022-10-28T08:02:53.364Z,7.00
2022-10-28T08:05:20.336Z,6.68
2022-10-28T08:07:48.009Z,6.47
2022-10-28T08:10:15.066Z,6.70
2022-10-28T08:12:43.895Z,5.93
2022-10-28T08:15:12.851Z,6.05
2022-10-28T08:17:39.930Z,5.90
2022-10-28T08:20:07.091Z,5.63
2022-10-28T08:22:34.011Z,5.85
2022-10-28T08:25:01.162Z,6.30
2022-10-28T08:27:29.731Z,5.93
2022-10-28T08:29:57.230Z,6.50
2022-10-28T08:32:24.285Z,5.22
2022-10-28T08:34:51.306Z,5.47
2022-10-28T08:37:18.671Z,5.22
2022-10-28T08:39:45.797Z,5.40
2022-10-28T08:42:44.878Z,5.45
2022-10-28T08:45:44.346Z,5.18
2022-10-28T08:48:31.686Z,4.85
2022-10-28T08:51:23.105Z,6.00
2022-10-28T08:53:58.487Z,5.18
2022-10-28T08:56:34.408Z,5.22
2022-10-28T08:59:05.487Z,5.25
2022-10-28T09:01:44.037Z,4.90
2022-10-28T09:04:39.337Z,4.72
2022-10-28T09:07:17.802Z,4.53
2022-10-28T09:09:48.458Z,4.68
2022-10-28T09:12:40.352Z,4.60
2022-10-28T09:15:26.949Z,4.10
2022-10-28T09:18:01.452Z,4.45
2022-10-28T09:20:43.581Z,3.50
2022-10-28T09:23:44.184Z,3.92
2022-10-28T09:26:40.002Z,3.88
2022-10-28T09:29:31.120Z,3.83
2022-10-28T09:32:04.199Z,4.00
2022-10-28T09:34:39.885Z,4.07
2022-10-28T09:37:14.543Z,4.22
2022-10-28T09:39:49.857Z,3.70
2022-10-28T09:42:25.978Z,3.72
2022-10-28T09:45:02.039Z,3.67
2022-10-28T09:47:37.987Z,3.83
2022-10-28T09:50:13.255Z,3.13
2022-10-28T09:52:54.197Z,3.55
2022-10-28T09:55:26.156Z,3.67
2022-10-28T09:57:53.799Z,3.50
2022-10-28T10:00:22.188Z,3.45
2022-10-28T10:02:58.112Z,3.25
2022-10-28T10:05:26.732Z,3.95
2022-10-28T10:07:58.048Z,3.53
2022-10-28T10:10:34.583Z,3.70
2022-10-28T10:13:04.862Z,3.30
2022-10-28T10:15:37.978Z,2.83
2022-10-28T10:18:07.858Z,3.67
2022-10-28T10:20:51.415Z,3.25
2022-10-28T10:23:37.104Z,2.80
2022-10-28T10:26:09.562Z,3.63
2022-10-28T10:28:46.460Z,3.20
2022-10-28T10:31:31.905Z,3.67
2022-10-28T10:33:59.847Z,4.15
2022-10-28T10:36:29.147Z,2.78
2022-10-28T10:38:58.312Z,3.10
2022-10-28T10:41:38.533Z,3.22
2022-10-28T10:44:33.193Z,2.92
2022-10-28T10:48:11.297Z,3.00
2022-10-28T10:50:41.719Z,3.10
2022-10-28T10:53:27.645Z,2.85
2022-10-28T10:56:01.375Z,3.60
2022-10-28T10:58:32.520Z,3.08
2022-10-28T11:01:03.232Z,3.67
2022-10-28T11:03:48.555Z,3.45
2022-10-28T11:06:24.269Z,3.25
2022-10-28T11:08:58.563Z,3.05
2022-10-28T11:11:33.672Z,3.10
2022-10-28T11:14:09.927Z,2.90
2022-10-28T11:16:55.265Z,3.08
2022-10-28T11:19:31.206Z,3.17
2022-10-28T11:22:19.901Z,3.13
2022-10-28T11:25:05.532Z,3.13
2022-10-28T11:28:06.380Z,3.05
2022-10-28T11:30:54.155Z,2.97
2022-10-28T11:33:54.077Z,3.08
2022-10-28T11:36:37.860Z,3.33
2022-10-28T11:39:31.895Z,3.47
2022-10-28T11:42:08.321Z,3.05
2022-10-28T11:44:47.331Z,3.40
2022-10-28T11:47:20.195Z,3.60
2022-10-28T11:50:18.063Z,3.25
2022-10-28T11:53:12.993Z,3.00
2022-10-28T11:55:52.626Z,3.78
2022-10-28T11:58:41.834Z,2.95
2022-10-28T12:01:46.186Z,3.15
2022-10-28T12:04:31.397Z,3.55
2022-10-28T12:07:21.881Z,3.35
2022-10-28T12:10:26.549Z,3.67
2022-10-28T12:13:38.465Z,3.42
2022-10-28T12:16:14.505Z,3.90
2022-10-28T12:18:52.284Z,3.58
2022-10-28T12:21:19.411Z,3.78
2022-10-28T12:23:48.202Z,3.35
2022-10-28T12:26:18.082Z,3.97
2022-10-28T12:28:46.945Z,3.88
2022-10-28T12:31:32.299Z,3.83
2022-10-28T12:34:04.431Z,4.07
2022-10-28T12:36:41.616Z,3.72
2022-10-28T12:39:16.563Z,4.10
2022-10-28T12:41:47.022Z,4.22
2022-10-28T12:44:21.160Z,4.47
2022-10-28T12:47:22.545Z,4.00
2022-10-28T12:49:55.345Z,4.25
2022-10-28T12:52:54.351Z,4.55
2022-10-28T12:55:33.784Z,3.63
2022-10-28T12:58:12.379Z,4.75
2022-10-28T13:00:46.503Z,4.28
2022-10-28T13:03:15.933Z,4.03
2022-10-28T13:05:46.676Z,4.35
2022-10-28T13:08:33.782Z,4.15
2022-10-28T13:11:15.798Z,4.43
2022-10-28T13:14:22.463Z,4.68
2022-10-28T13:17:12.480Z,4.55
2022-10-28T13:19:58.623Z,4.60
2022-10-28T13:22:48.559Z,4.80
2022-10-28T13:25:27.475Z,4.82
2022-10-28T13:27:58.856Z,5.03
2022-10-28T13:30:27.152Z,4.30
2022-10-28T13:33:07.020Z,4.65
2022-10-28T13:35:35.439Z,5.22
2022-10-28T13:38:08.732Z,4.65
2022-10-28T13:40:35.675Z,5.00
2022-10-28T13:43:02.902Z,5.13
2022-10-28T13:45:52.204Z,4.97
2022-10-28T13:48:43.601Z,5.00
2022-10-28T13:51:11.659Z,5.30
2022-10-28T13:53:48.108Z,5.13
2022-10-28T13:56:27.345Z,5.35
2022-10-28T13:58:59.251Z,5.65
2022-10-28T14:01:41.472Z,5.28
2022-10-28T14:04:30.777Z,5.63
2022-10-28T14:07:12.784Z,5.40
2022-10-28T14:09:41.829Z,6.00
2022-10-28T14:12:21.305Z,5.32
2022-10-28T14:15:00.353Z,6.30
2022-10-28T14:17:39.869Z,5.85
2022-10-28T14:20:32.198Z,5.85
2022-10-28T14:22:59.756Z,5.70
2022-10-28T14:25:50.948Z,5.82
2022-10-28T14:28:31.131Z,5.70
2022-10-28T14:31:15.135Z,6.18
2022-10-28T14:33:42.418Z,6.28
2022-10-28T14:36:19.603Z,5.57
2022-10-28T14:39:12.087Z,6.85
2022-10-28T14:41:39.125Z,6.05
2022-10-28T14:44:25.453Z,6.60
2022-10-28T14:47:01.819Z,7.07
2022-10-28T14:49:34.555Z,7.07
2022-10-28T14:52:18.531Z,7.30
2022-10-28T14:54:52.329Z,6.40
2022-10-28T14:57:22.838Z,7.03
2022-10-28T14:59:51.768Z,6.70
2022-10-28T15:02:25.301Z,6.65
2022-10-28T15:05:24.797Z,6.93
2022-10-28T15:07:52.280Z,6.38
2022-10-28T15:10:29.480Z,6.30
2022-10-28T15:12:58.366Z,6.60
2022-10-28T15:15:28.028Z,7.10
2022-10-28T15:17:55.691Z,6.43
2022-10-28T15:20:31.195Z,6.68
2022-10-28T15:26:15.443Z,6.43
2022-10-28T15:28:43.053Z,6.63
2022-10-28T15:31:10.079Z,6.85
2022-10-28T15:33:39.841Z,6.50
2022-10-28T15:36:17.811Z,6.80
2022-10-28T15:38:49.358Z,7.55
2022-10-28T15:41:43.762Z,7.20
2022-10-28T15:44:46.691Z,7.47
2022-10-28T15:47:16.872Z,7.53
2022-10-28T15:49:46.569Z,6.90
2022-10-28T15:52:16.760Z,7.03
2022-10-28T15:54:58.620Z,7.40
2022-10-28T15:57:29.003Z,7.07
2022-10-28T16:00:17.982Z,7.70
2022-10-28T16:02:53.256Z,7.40
2022-10-28T16:08:04.157Z,7.63
2022-10-28T16:10:36.348Z,6.90
2022-10-28T16:13:10.585Z,7.28
2022-10-28T16:15:51.044Z,7.95
2022-10-28T16:18:21.394Z,7.15
2022-10-28T16:20:49.120Z,7.95
2022-10-28T16:23:20.749Z,8.05
2022-10-28T16:25:48.450Z,7.47
2022-10-28T16:28:25.407Z,7.55
2022-10-28T16:30:57.445Z,7.75
2022-10-28T16:33:29.954Z,7.07
2022-10-28T16:35:57.248Z,7.72
2022-10-28T16:38:24.720Z,8.00
2022-10-28T16:40:52.641Z,6.90
2022-10-28T16:43:24.612Z,7.28
2022-10-28T16:45:54.271Z,6.80
2022-10-28T16:48:30.614Z,7.65
2022-10-28T16:51:01.816Z,6.82
2022-10-28T16:53:29.263Z,7.78
2022-10-28T16:55:59.362Z,7.57
2022-10-28T16:58:31.038Z,7.65
2022-10-28T17:00:59.990Z,7.57
2022-10-28T17:03:27.018Z,7.70
2022-10-28T17:05:53.989Z,7.15
2022-10-28T17:08:42.235Z,7.25
2022-10-28T17:11:13.831Z,7.85
2022-10-28T17:13:40.891Z,7.72
2022-10-28T17:16:07.951Z,8.27
2022-10-28T17:18:35.106Z,7.32
2022-10-28T17:21:03.292Z,7.47
2022-10-28T17:23:30.741Z,8.43
2022-10-28T17:26:02.703Z,8.98
2022-10-28T17:28:29.937Z,7.90
2022-10-28T17:31:08.089Z,8.30
2022-10-28T17:33:35.497Z,7.55
2022-10-28T17:36:05.199Z,8.27
2022-10-28T17:38:32.285Z,8.02
2022-10-28T17:40:59.926Z,8.98
2022-10-28T17:43:26.960Z,8.52
2022-10-28T17:46:06.458Z,8.38
2022-10-28T17:48:39.010Z,8.10
2022-10-28T17:51:06.666Z,8.02
2022-10-28T17:53:33.638Z,8.60
2022-10-28T17:56:03.115Z,7.13
2022-10-28T17:58:30.759Z,8.10
2022-10-28T18:00:59.721Z,7.85
2022-10-28T18:03:27.866Z,7.43
2022-10-28T18:05:54.887Z,8.13
2022-10-28T18:08:23.148Z,7.93
2022-10-28T18:10:55.139Z,7.47
2022-10-28T18:13:30.592Z,7.65
2022-10-28T18:16:08.202Z,7.72
2022-10-28T18:18:40.995Z,8.43
2022-10-28T18:21:11.301Z,7.22
2022-10-28T18:23:38.918Z,8.13
2022-10-28T18:26:14.511Z,7.68
2022-10-28T18:31:14.597Z,7.00
2022-10-28T18:33:43.896Z,7.47
2022-10-28T18:36:17.551Z,7.72
2022-10-28T18:38:45.117Z,7.45
2022-10-28T18:41:26.947Z,7.45
2022-10-28T18:43:55.629Z,7.57
2022-10-28T18:46:22.938Z,7.63
2022-10-28T18:48:50.175Z,7.75
2022-10-28T18:51:17.805Z,6.97
2022-10-28T18:53:47.053Z,6.43
2022-10-28T18:56:19.828Z,6.38
2022-10-28T18:58:51.724Z,7.28
2022-10-28T19:01:27.728Z,6.60
2022-10-28T19:03:57.131Z,7.10
2022-10-28T19:06:26.256Z,7.30
2022-10-28T19:08:54.743Z,7.25
2022-10-28T19:11:23.643Z,7.93
2022-10-28T19:13:51.084Z,7.78
2022-10-28T19:16:18.172Z,7.40
2022-10-28T19:18:45.304Z,7.18
2022-10-28T19:21:14.552Z,7.03
2022-10-28T19:23:43.850Z,7.82
2022-10-28T19:26:11.581Z,7.35
2022-10-28T19:28:44.128Z,6.93
2022-10-28T19:31:17.175Z,7.28
2022-10-28T19:33:45.401Z,7.22
2022-10-28T19:36:22.018Z,6.82
2022-10-28T19:38:50.850Z,6.97
2022-10-28T19:41:20.177Z,7.47
2022-10-28T19:43:47.830Z,7.20
2022-10-28T19:46:19.773Z,7.30
2022-10-28T19:48:50.056Z,7.28
2022-10-28T19:51:22.984Z,7.13
2022-10-28T19:53:55.307Z,8.35
2022-10-28T19:56:22.368Z,9.40
2022-10-28T19:58:53.571Z,7.68
2022-10-28T20:01:22.571Z,8.52
2022-10-28T20:03:55.032Z,9.40
2022-10-28T20:06:25.366Z,8.85
2022-10-28T20:08:52.679Z,7.20
2022-10-28T20:11:25.944Z,7.80
2022-10-28T20:14:01.032Z,6.93
2022-10-28T20:16:28.375Z,6.40
2022-10-28T20:18:56.596Z,6.88
2022-10-28T20:21:26.179Z,6.45
2022-10-28T20:23:55.816Z,6.13
2022-10-28T20:26:28.575Z,6.05
2022-10-28T20:28:56.731Z,7.30
2022-10-28T20:31:26.108Z,6.55
2022-10-28T20:33:57.789Z,5.93
2022-10-28T20:36:38.475Z,6.78
2022-10-28T20:39:13.530Z,5.78
2022-10-28T20:41:42.629Z,6.75
2022-10-28T20:44:09.979Z,6.05
2022-10-28T20:46:37.078Z,5.88
2022-10-28T20:49:05.262Z,6.40
2022-10-28T20:51:33.003Z,6.32
2022-10-28T20:54:00.105Z,6.22
2022-10-28T20:56:30.298Z,6.68
2022-10-28T20:59:00.763Z,6.10
2022-10-28T21:01:34.629Z,6.20
2022-10-28T21:04:06.471Z,6.30
2022-10-28T21:06:34.932Z,6.20
2022-10-28T21:09:02.413Z,5.60
2022-10-28T21:11:29.372Z,5.65
2022-10-28T21:13:59.415Z,6.07
2022-10-28T21:16:27.724Z,6.43
2022-10-28T21:18:55.071Z,6.40
2022-10-28T21:21:24.083Z,5.85
2022-10-28T21:23:51.256Z,5.90
2022-10-28T21:26:18.260Z,6.00
2022-10-28T21:28:49.458Z,5.50
2022-10-28T21:31:18.305Z,5.95
2022-10-28T21:33:45.871Z,5.88
2022-10-28T21:36:15.868Z,6.85
2022-10-28T21:38:43.566Z,6.15
2022-10-28T21:41:13.080Z,7.00
2022-10-28T21:43:42.464Z,5.78
2022-10-28T21:46:10.226Z,6.25
2022-10-28T21:48:38.244Z,6.03
2022-10-28T21:51:11.767Z,6.20
2022-10-28T21:53:42.780Z,6.25
2022-10-28T21:56:16.515Z,6.30
2022-10-28T21:58:44.257Z,6.15
2022-10-28T22:01:11.378Z,5.93
2022-10-28T22:03:38.737Z,5.93
2022-10-28T22:06:06.326Z,6.53
2022-10-28T22:08:34.000Z,6.28
2022-10-28T22:11:04.219Z,6.15
2022-10-28T22:13:31.306Z,6.15
2022-10-28T22:16:04.259Z,5.90
2022-10-28T22:18:33.231Z,5.75
2022-10-28T22:21:21.570Z,6.35
2022-10-28T22:23:49.803Z,6.47
2022-10-28T22:26:24.606Z,6.15
2022-10-28T22:28:53.303Z,5.90
2022-10-28T22:31:22.601Z,6.05
2022-10-28T22:33:49.704Z,5.93
2022-10-28T22:36:19.604Z,5.88
2022-10-28T22:38:47.136Z,6.03
2022-10-28T22:41:15.815Z,6.05
2022-10-28T22:43:44.863Z,5.95
2022-10-28T22:46:15.027Z,6.60
2022-10-28T22:48:42.221Z,5.60
2022-10-28T22:51:12.316Z,6.00
2022-10-28T22:53:40.625Z,5.85
2022-10-28T22:56:11.408Z,6.15
2022-10-28T22:58:38.442Z,6.35
2022-10-28T23:01:13.872Z,5.88
2022-10-28T23:03:43.289Z,5.85
2022-10-28T23:06:12.359Z,5.90
2022-10-28T23:08:40.922Z,5.93
2022-10-28T23:11:09.107Z,5.65
2022-10-28T23:16:09.923Z,5.45
2022-10-28T23:18:37.173Z,5.75
2022-10-28T23:21:14.286Z,5.60
2022-10-28T23:23:42.217Z,5.97
2022-10-28T23:26:14.201Z,5.55
2022-10-28T23:28:44.098Z,5.95
2022-10-28T23:31:15.200Z,5.47
2022-10-28T23:33:42.542Z,5.68
2022-10-28T23:36:12.349Z,5.47
2022-10-28T23:38:39.389Z,5.35
2022-10-28T23:41:08.634Z,5.90
2022-10-28T23:43:35.806Z,5.57
2022-10-28T23:46:02.799Z,5.95
2022-10-28T23:48:30.623Z,5.88
2022-10-28T23:50:57.862Z,5.60
2022-10-28T23:53:25.063Z,5.47
2022-10-28T23:55:52.729Z,5.22
2022-10-28T23:58:22.653Z,5.43
